createdAt,value
2019-03-13T00:01:00.824Z,2.50
2019-03-13T00:03:29.258Z,2.40
2019-03-13T00:05:57.793Z,2.50
2019-03-13T00:08:26.232Z,2.17
2019-03-13T00:10:54.683Z,2.17
2019-03-13T00:13:23.173Z,2.73
2019-03-13T00:16:10.956Z,2.73
2019-03-13T00:18:39.419Z,2.70
2019-03-13T00:21:07.924Z,2.47
2019-03-13T00:23:36.372Z,2.03
2019-03-13T00:26:04.984Z,2.40
2019-03-13T00:28:33.418Z,2.17
2019-03-13T00:31:01.867Z,2.70
2019-03-13T00:33:30.284Z,2.43
2019-03-13T00:35:58.750Z,2.47
2019-03-13T00:38:46.679Z,2.63
2019-03-13T00:41:15.119Z,2.93
2019-03-13T00:43:43.541Z,2.10
2019-03-13T00:46:12.527Z,2.23
2019-03-13T00:48:40.964Z,2.20
2019-03-13T00:51:09.407Z,2.40
2019-03-13T00:53:37.839Z,2.50
2019-03-13T00:56:06.282Z,2.27
2019-03-13T00:58:34.723Z,2.40
2019-03-13T01:01:10.771Z,2.40
2019-03-13T01:03:40.842Z,2.90
2019-03-13T01:06:16.957Z,2.13
2019-03-13T01:08:45.492Z,2.07
2019-03-13T01:11:13.938Z,2.43
2019-03-13T01:13:42.467Z,2.60
2019-03-13T01:16:10.914Z,2.60
2019-03-13T01:18:39.355Z,2.30
2019-03-13T01:21:07.873Z,1.97
2019-03-13T01:23:36.311Z,2.10
2019-03-13T01:26:24.154Z,2.00
2019-03-13T01:28:52.588Z,2.17
2019-03-13T01:31:38.996Z,1.83
2019-03-13T01:34:14.664Z,2.07
2019-03-13T01:36:43.122Z,2.00
2019-03-13T01:39:31.808Z,2.30
2019-03-13T01:42:00.250Z,2.20
2019-03-13T01:44:28.692Z,2.13
2019-03-13T01:46:57.136Z,2.17
2019-03-13T01:49:25.581Z,1.70
2019-03-13T01:51:54.047Z,2.00
2019-03-13T01:54:22.545Z,1.77
2019-03-13T01:56:51.000Z,1.77
2019-03-13T01:59:19.450Z,1.93
2019-03-13T02:01:47.937Z,2.63
2019-03-13T02:04:16.537Z,2.30
2019-03-13T02:06:44.977Z,1.77
2019-03-13T02:09:13.409Z,2.27
2019-03-13T02:11:42.672Z,2.33
2019-03-13T02:14:11.112Z,1.67
2019-03-13T02:16:39.545Z,2.17
2019-03-13T02:19:07.975Z,1.87
2019-03-13T02:21:36.448Z,2.03
2019-03-13T02:24:04.993Z,1.80
2019-03-13T02:26:33.514Z,1.80
2019-03-13T02:29:01.959Z,2.00
2019-03-13T02:31:30.442Z,1.87
2019-03-13T02:33:58.899Z,1.97
2019-03-13T02:36:27.329Z,3.17
2019-03-13T02:38:55.765Z,2.70
2019-03-13T02:41:24.206Z,2.20
2019-03-13T02:43:52.659Z,2.63
2019-03-13T02:46:21.086Z,2.00
2019-03-13T02:48:49.537Z,2.73
2019-03-13T02:51:17.974Z,2.00
2019-03-13T02:53:46.409Z,2.00
2019-03-13T02:56:14.841Z,2.20
2019-03-13T02:58:43.291Z,1.70
2019-03-13T03:01:17.213Z,1.77
2019-03-13T03:06:21.117Z,1.60
2019-03-13T03:08:49.561Z,2.02
2019-03-13T03:11:17.999Z,1.80
2019-03-13T03:13:46.441Z,1.87
2019-03-13T03:16:14.884Z,2.07
2019-03-13T03:18:43.386Z,2.33
2019-03-13T03:21:12.730Z,1.70
2019-03-13T03:23:45.039Z,1.93
2019-03-13T03:26:11.334Z,2.77
2019-03-13T03:28:39.775Z,3.47
2019-03-13T03:31:08.755Z,1.90
2019-03-13T03:33:37.205Z,2.23
2019-03-13T03:36:05.657Z,2.50
2019-03-13T03:38:34.090Z,2.77
2019-03-13T03:41:02.523Z,2.20
2019-03-13T03:43:40.416Z,2.87
2019-03-13T03:46:01.163Z,2.83
2019-03-13T03:48:29.668Z,2.23
2019-03-13T03:50:58.097Z,2.70
2019-03-13T03:53:26.554Z,1.87
2019-03-13T03:55:55.165Z,2.10
2019-03-13T03:58:23.721Z,2.00
2019-03-13T04:00:52.602Z,2.20
2019-03-13T04:03:21.191Z,2.23
2019-03-13T04:05:49.934Z,2.03
2019-03-13T04:08:18.386Z,2.23
2019-03-13T04:10:46.810Z,2.40
2019-03-13T04:13:15.264Z,2.50
2019-03-13T04:15:43.686Z,2.53
2019-03-13T04:18:12.921Z,2.30
2019-03-13T04:20:41.363Z,2.27
2019-03-13T04:23:09.799Z,2.27
2019-03-13T04:25:38.232Z,2.23
2019-03-13T04:28:06.946Z,2.20
2019-03-13T04:30:35.719Z,2.30
2019-03-13T04:33:04.229Z,1.87
2019-03-13T04:35:32.653Z,2.47
2019-03-13T04:38:01.104Z,1.93
2019-03-13T04:40:29.556Z,2.17
2019-03-13T04:42:57.992Z,2.10
2019-03-13T04:45:26.440Z,2.00
2019-03-13T04:47:54.872Z,2.40
2019-03-13T04:50:29.211Z,2.13
2019-03-13T04:52:57.637Z,1.87
2019-03-13T04:55:26.085Z,1.90
2019-03-13T04:57:54.522Z,2.10
2019-03-13T05:00:22.962Z,1.90
2019-03-13T05:02:51.386Z,1.90
2019-03-13T05:05:41.754Z,1.80
2019-03-13T05:08:13.416Z,2.20
2019-03-13T05:10:42.117Z,1.77
2019-03-13T05:13:10.719Z,1.60
2019-03-13T05:15:39.187Z,1.90
2019-03-13T05:18:09.011Z,1.60
2019-03-13T05:20:37.459Z,1.80
2019-03-13T05:23:05.903Z,1.80
2019-03-13T05:25:34.420Z,1.90
2019-03-13T05:28:02.900Z,1.77
2019-03-13T05:30:31.615Z,2.00
2019-03-13T05:33:00.048Z,4.17
2019-03-13T05:35:28.497Z,2.73
2019-03-13T05:37:57.022Z,1.57
2019-03-13T05:40:25.560Z,2.37
2019-03-13T05:42:53.985Z,2.20
2019-03-13T05:45:22.438Z,2.00
2019-03-13T05:47:50.861Z,2.00
2019-03-13T05:50:19.324Z,2.17
2019-03-13T05:52:47.763Z,2.03
2019-03-13T05:55:16.219Z,2.03
2019-03-13T05:57:44.651Z,1.83
2019-03-13T06:00:17.850Z,1.73
2019-03-13T06:02:47.880Z,2.27
2019-03-13T06:05:27.354Z,1.93
2019-03-13T06:07:55.795Z,1.63
2019-03-13T06:10:24.242Z,2.00
2019-03-13T06:12:52.671Z,1.77
2019-03-13T06:15:21.126Z,1.80
2019-03-13T06:17:49.563Z,2.00
2019-03-13T06:20:18.286Z,2.03
2019-03-13T06:22:46.718Z,1.80
2019-03-13T06:25:15.343Z,1.90
2019-03-13T06:27:46.307Z,1.53
2019-03-13T06:30:18.675Z,2.10
2019-03-13T06:32:47.178Z,2.00
2019-03-13T06:35:15.973Z,1.67
2019-03-13T06:37:44.486Z,1.70
2019-03-13T06:40:17.534Z,1.60
2019-03-13T06:42:45.975Z,1.83
2019-03-13T06:45:17.423Z,1.43
2019-03-13T06:47:45.883Z,1.23
2019-03-13T06:50:21.814Z,1.50
2019-03-13T06:52:50.251Z,1.40
2019-03-13T06:55:18.698Z,1.30
2019-03-13T06:57:47.139Z,1.33
2019-03-13T07:00:30.922Z,1.30
2019-03-13T07:03:00.976Z,1.73
2019-03-13T07:05:34.006Z,1.20
2019-03-13T07:08:04.085Z,1.47
2019-03-13T07:10:34.178Z,1.50
2019-03-13T07:13:19.245Z,1.40
2019-03-13T07:16:04.691Z,1.60
2019-03-13T07:18:40.757Z,1.50
2019-03-13T07:21:10.851Z,1.70
2019-03-13T07:23:40.921Z,1.50
2019-03-13T07:26:13.394Z,1.40
2019-03-13T07:28:46.131Z,1.70
2019-03-13T07:31:22.187Z,1.80
2019-03-13T07:33:52.267Z,1.50
2019-03-13T07:36:22.355Z,1.50
2019-03-13T07:38:52.422Z,1.77
2019-03-13T07:41:37.519Z,1.63
2019-03-13T07:46:59.694Z,1.97
2019-03-13T07:49:29.775Z,2.07
2019-03-13T07:52:02.919Z,1.73
2019-03-13T07:54:39.122Z,1.73
2019-03-13T07:57:15.030Z,1.50
2019-03-13T07:59:45.098Z,1.53
2019-03-13T08:02:49.769Z,1.90
2019-03-13T08:05:28.653Z,2.10
2019-03-13T08:08:04.434Z,1.80
2019-03-13T08:10:50.676Z,1.80
2019-03-13T08:13:26.704Z,1.70
2019-03-13T08:15:59.950Z,2.13
2019-03-13T08:18:49.439Z,2.10
2019-03-13T08:21:19.537Z,2.27
2019-03-13T08:23:49.629Z,1.80
2019-03-13T08:26:31.949Z,1.87
2019-03-13T08:29:11.051Z,1.20
2019-03-13T08:31:47.070Z,1.40
2019-03-13T08:34:22.879Z,1.80
2019-03-13T08:36:55.621Z,1.47
2019-03-13T08:39:31.546Z,1.70
2019-03-13T08:42:18.231Z,1.40
2019-03-13T08:45:05.017Z,1.50
2019-03-13T08:48:00.119Z,1.77
2019-03-13T08:50:42.209Z,1.63
2019-03-13T08:53:21.595Z,1.37
2019-03-13T08:56:07.624Z,1.50
2019-03-13T08:58:49.680Z,1.80
2019-03-13T09:01:28.846Z,1.53
2019-03-13T09:04:04.655Z,1.60
2019-03-13T09:06:43.574Z,1.13
2019-03-13T09:09:22.805Z,1.30
2019-03-13T09:11:52.887Z,2.17
2019-03-13T09:14:25.625Z,1.50
2019-03-13T09:16:55.883Z,1.52
2019-03-13T09:19:42.203Z,1.60
2019-03-13T09:22:18.063Z,1.40
2019-03-13T09:24:48.143Z,1.20
2019-03-13T09:27:21.026Z,1.63
2019-03-13T09:32:54.563Z,1.33
2019-03-13T09:35:40.022Z,2.30
2019-03-13T09:38:15.818Z,1.20
2019-03-13T09:40:45.899Z,1.60
2019-03-13T09:43:18.699Z,1.10
2019-03-13T09:46:05.565Z,1.40
2019-03-13T09:48:41.774Z,1.53
2019-03-13T09:51:20.720Z,1.40
2019-03-13T09:53:53.838Z,1.33
2019-03-13T09:56:35.904Z,1.60
2019-03-13T09:59:08.841Z,1.30
2019-03-13T10:01:41.592Z,1.23
2019-03-13T10:04:28.166Z,1.10
2019-03-13T10:06:58.248Z,1.10
2019-03-13T10:09:28.345Z,1.53
2019-03-13T10:12:01.082Z,1.20
2019-03-13T10:14:46.258Z,1.50
2019-03-13T10:17:16.328Z,1.23
2019-03-13T10:20:04.550Z,1.33
2019-03-13T10:22:40.695Z,1.43
2019-03-13T10:25:13.356Z,1.37
2019-03-13T10:27:43.421Z,1.33
2019-03-13T10:30:32.850Z,1.30
2019-03-13T10:33:15.141Z,1.00
2019-03-13T10:35:45.452Z,1.93
2019-03-13T10:38:18.205Z,1.30
2019-03-13T10:41:03.601Z,1.20
2019-03-13T10:43:36.704Z,1.23
2019-03-13T10:46:12.833Z,1.10
2019-03-13T10:48:42.918Z,1.17
2019-03-13T10:51:22.001Z,1.73
2019-03-13T10:53:54.775Z,1.07
2019-03-13T10:56:24.872Z,1.50
2019-03-13T10:59:00.518Z,1.20
2019-03-13T11:01:33.287Z,1.00
2019-03-13T11:04:03.352Z,1.10
2019-03-13T11:06:39.282Z,1.10
2019-03-13T11:09:09.544Z,1.23
2019-03-13T11:11:39.612Z,1.43
2019-03-13T11:14:15.872Z,1.20
2019-03-13T11:16:45.387Z,1.30
2019-03-13T11:19:18.515Z,1.40
2019-03-13T11:24:30.738Z,1.10
2019-03-13T11:27:03.471Z,1.10
2019-03-13T11:29:33.549Z,1.27
2019-03-13T11:32:18.689Z,1.93
2019-03-13T11:35:03.551Z,1.40
2019-03-13T11:37:36.303Z,1.20
2019-03-13T11:40:15.501Z,1.57
2019-03-13T11:42:48.324Z,1.20
2019-03-13T11:45:18.492Z,1.30
2019-03-13T11:48:04.750Z,1.20
2019-03-13T11:50:53.001Z,1.20
2019-03-13T11:53:29.018Z,1.23
2019-03-13T11:56:08.002Z,1.03
2019-03-13T11:58:44.147Z,1.30
2019-03-13T12:01:17.269Z,1.43
2019-03-13T12:04:01.376Z,1.07
2019-03-13T12:06:37.203Z,1.90
2019-03-13T12:09:10.753Z,1.00
2019-03-13T12:11:40.942Z,1.10
2019-03-13T12:14:13.755Z,1.10
2019-03-13T12:16:43.867Z,1.27
2019-03-13T12:19:16.763Z,1.40
2019-03-13T12:21:49.703Z,1.30
2019-03-13T12:24:36.012Z,1.23
2019-03-13T12:27:06.100Z,1.20
2019-03-13T12:29:39.046Z,0.93
2019-03-13T12:32:14.766Z,1.40
2019-03-13T12:34:45.755Z,1.30
2019-03-13T12:37:18.278Z,0.90
2019-03-13T12:40:04.990Z,1.20
2019-03-13T12:42:37.910Z,1.10
2019-03-13T12:45:22.687Z,0.93
2019-03-13T12:47:55.714Z,1.20
2019-03-13T12:50:28.757Z,1.40
2019-03-13T12:53:14.196Z,1.10
2019-03-13T12:55:47.226Z,1.00
2019-03-13T12:58:23.308Z,1.20
2019-03-13T13:01:10.075Z,1.10
2019-03-13T13:03:43.145Z,1.20
2019-03-13T13:06:31.234Z,0.93
2019-03-13T13:09:16.606Z,1.13
2019-03-13T13:12:08.210Z,0.90
2019-03-13T13:14:44.232Z,1.10
2019-03-13T13:17:20.315Z,0.90
2019-03-13T13:19:48.756Z,0.93
2019-03-13T13:22:17.195Z,1.07
2019-03-13T13:24:45.651Z,1.10
2019-03-13T13:27:14.214Z,1.10
2019-03-13T13:29:42.642Z,1.10
2019-03-13T13:32:11.075Z,1.03
2019-03-13T13:34:39.531Z,1.00
2019-03-13T13:37:07.970Z,1.00
2019-03-13T13:39:36.784Z,1.30
2019-03-13T13:42:05.234Z,1.10
2019-03-13T13:44:33.707Z,1.00
2019-03-13T13:47:02.147Z,1.00
2019-03-13T13:49:30.597Z,0.87
2019-03-13T13:51:59.036Z,1.70
2019-03-13T13:54:27.474Z,2.07
2019-03-13T13:56:55.919Z,1.20
2019-03-13T13:59:24.411Z,1.20
2019-03-13T14:01:52.839Z,1.23
2019-03-13T14:04:21.283Z,1.30
2019-03-13T14:06:49.713Z,1.10
2019-03-13T14:09:18.155Z,1.40
2019-03-13T14:11:46.594Z,1.33
2019-03-13T14:14:15.055Z,1.23
2019-03-13T14:16:44.415Z,1.43
2019-03-13T14:19:32.213Z,1.60
2019-03-13T14:22:00.654Z,1.63
2019-03-13T14:24:29.110Z,0.90
2019-03-13T14:26:57.540Z,1.20
2019-03-13T14:29:25.995Z,1.50
2019-03-13T14:31:54.417Z,1.30
2019-03-13T14:34:22.883Z,1.40
2019-03-13T14:36:51.397Z,1.40
2019-03-13T14:39:19.833Z,1.30
2019-03-13T14:41:48.286Z,1.40
2019-03-13T14:44:16.747Z,1.10
2019-03-13T14:46:45.183Z,1.40
2019-03-13T14:49:14.351Z,1.43
2019-03-13T14:51:42.792Z,1.23
2019-03-13T14:54:11.214Z,1.03
2019-03-13T14:56:39.661Z,1.40
2019-03-13T14:59:08.961Z,1.40
2019-03-13T15:01:37.405Z,1.93
2019-03-13T15:04:05.850Z,1.27
2019-03-13T15:06:34.387Z,1.30
2019-03-13T15:09:02.815Z,1.40
2019-03-13T15:11:31.289Z,1.70
2019-03-13T15:13:59.775Z,1.30
2019-03-13T15:16:28.209Z,1.30
2019-03-13T15:18:56.659Z,1.50
2019-03-13T15:21:25.107Z,1.43
2019-03-13T15:23:53.551Z,1.07
2019-03-13T15:26:21.985Z,1.20
2019-03-13T15:28:50.416Z,1.60
2019-03-13T15:31:18.863Z,1.23
2019-03-13T15:33:47.307Z,1.27
2019-03-13T15:36:15.761Z,1.77
2019-03-13T15:38:44.475Z,1.23
2019-03-13T15:41:12.923Z,1.70
2019-03-13T15:43:41.349Z,1.30
2019-03-13T15:46:09.793Z,1.50
2019-03-13T15:48:38.225Z,1.50
2019-03-13T15:51:06.667Z,1.67
2019-03-13T15:53:35.102Z,1.30
2019-03-13T15:56:03.623Z,1.20
2019-03-13T15:58:32.111Z,1.40
2019-03-13T16:01:00.548Z,1.30
2019-03-13T16:03:28.987Z,1.40
2019-03-13T16:05:57.435Z,1.10
2019-03-13T16:08:25.889Z,1.50
2019-03-13T16:10:54.334Z,1.23
2019-03-13T16:13:22.778Z,1.50
2019-03-13T16:15:51.221Z,1.77
2019-03-13T16:18:19.641Z,1.10
2019-03-13T16:20:48.096Z,1.20
2019-03-13T16:23:17.414Z,1.20
2019-03-13T16:25:46.054Z,1.50
2019-03-13T16:28:14.599Z,1.20
2019-03-13T16:30:44.711Z,1.73
2019-03-13T16:33:13.186Z,1.10
2019-03-13T16:35:41.634Z,1.10
2019-03-13T16:38:10.161Z,1.20
2019-03-13T16:40:38.700Z,1.23
2019-03-13T16:43:07.198Z,1.30
2019-03-13T16:45:35.641Z,1.00
2019-03-13T16:48:04.531Z,1.20
2019-03-13T16:50:37.355Z,1.80
2019-03-13T16:53:05.926Z,1.30
2019-03-13T16:55:34.375Z,1.27
2019-03-13T16:58:02.814Z,1.40
2019-03-13T17:00:32.377Z,1.50
2019-03-13T17:03:00.827Z,1.00
2019-03-13T17:05:29.449Z,1.40
2019-03-13T17:07:57.870Z,1.30
2019-03-13T17:10:27.556Z,1.33
2019-03-13T17:12:56.143Z,1.30
2019-03-13T17:15:25.619Z,1.27
2019-03-13T17:18:14.932Z,1.30
2019-03-13T17:20:43.406Z,1.50
2019-03-13T17:23:11.851Z,2.00
2019-03-13T17:25:40.268Z,1.20
2019-03-13T17:28:08.726Z,1.03
2019-03-13T17:30:37.154Z,1.27
2019-03-13T17:33:05.596Z,1.60
2019-03-13T17:35:34.022Z,1.70
2019-03-13T17:38:02.469Z,1.20
2019-03-13T17:40:32.157Z,1.30
2019-03-13T17:43:00.599Z,1.20
2019-03-13T17:45:48.400Z,1.30
2019-03-13T17:48:16.895Z,1.10
2019-03-13T17:50:45.339Z,1.83
2019-03-13T17:53:14.721Z,1.20
2019-03-13T17:55:43.151Z,1.70
2019-03-13T17:58:11.595Z,1.67
2019-03-13T18:00:51.454Z,1.97
2019-03-13T18:03:20.877Z,1.87
2019-03-13T18:05:49.319Z,1.93
2019-03-13T18:08:17.766Z,1.10
2019-03-13T18:10:46.276Z,1.20
2019-03-13T18:13:14.791Z,1.47
2019-03-13T18:15:43.227Z,1.60
2019-03-13T18:18:11.670Z,1.40
2019-03-13T18:20:40.111Z,1.70
2019-03-13T18:23:08.554Z,1.93
2019-03-13T18:25:36.982Z,1.37
2019-03-13T18:28:05.431Z,1.37
2019-03-13T18:30:35.198Z,1.60
2019-03-13T18:33:03.629Z,1.80
2019-03-13T18:35:32.226Z,1.47
2019-03-13T18:38:00.669Z,1.10
2019-03-13T18:40:29.103Z,1.60
2019-03-13T18:42:57.541Z,1.73
2019-03-13T18:45:34.242Z,1.67
2019-03-13T18:48:02.681Z,1.50
2019-03-13T18:50:31.190Z,1.30
2019-03-13T18:52:59.639Z,1.80
2019-03-13T18:55:29.597Z,2.30
2019-03-13T18:57:58.041Z,1.30
2019-03-13T19:00:36.658Z,1.43
2019-03-13T19:03:07.247Z,1.70
2019-03-13T19:05:36.932Z,1.20
2019-03-13T19:08:06.217Z,1.73
2019-03-13T19:10:35.074Z,1.47
2019-03-13T19:13:03.874Z,1.50
2019-03-13T19:15:32.535Z,1.13
2019-03-13T19:18:01.485Z,1.60
2019-03-13T19:20:31.128Z,1.37
2019-03-13T19:22:59.639Z,1.47
2019-03-13T19:25:28.136Z,1.53
2019-03-13T19:27:56.595Z,1.40
2019-03-13T19:30:33.723Z,1.93
2019-03-13T19:33:02.271Z,1.20
2019-03-13T19:35:30.762Z,1.30
2019-03-13T19:38:14.364Z,1.50
2019-03-13T19:40:42.801Z,1.53
2019-03-13T19:43:11.238Z,1.57
2019-03-13T19:45:41.778Z,1.63
2019-03-13T19:48:10.390Z,1.33
2019-03-13T19:50:38.890Z,1.33
2019-03-13T19:53:07.579Z,1.17
2019-03-13T19:55:36.095Z,1.60
2019-03-13T19:58:04.537Z,1.27
2019-03-13T20:00:32.974Z,1.97
2019-03-13T20:03:15.758Z,1.60
2019-03-13T20:05:46.447Z,1.47
2019-03-13T20:08:15.247Z,1.27
2019-03-13T20:10:43.663Z,1.83
2019-03-13T20:13:12.101Z,1.70
2019-03-13T20:15:40.543Z,1.90
2019-03-13T20:18:08.992Z,1.20
2019-03-13T20:20:37.410Z,1.70
2019-03-13T20:23:18.626Z,1.20
2019-03-13T20:25:47.052Z,1.33
2019-03-13T20:28:15.501Z,1.50
2019-03-13T20:30:44.064Z,1.30
2019-03-13T20:33:12.499Z,1.43
2019-03-13T20:35:40.936Z,1.03
2019-03-13T20:38:09.377Z,1.57
2019-03-13T20:40:37.823Z,1.53
2019-03-13T20:43:06.282Z,1.20
2019-03-13T20:45:34.711Z,1.67
2019-03-13T20:48:03.420Z,1.50
2019-03-13T20:50:37.225Z,1.60
2019-03-13T20:53:02.094Z,1.57
2019-03-13T20:55:30.533Z,1.80
2019-03-13T20:57:59.113Z,1.57
2019-03-13T21:00:28.437Z,1.43
2019-03-13T21:02:59.628Z,1.57
2019-03-13T21:05:28.194Z,1.60
2019-03-13T21:07:56.647Z,1.70
2019-03-13T21:10:25.075Z,1.50
2019-03-13T21:12:53.715Z,1.27
2019-03-13T21:15:27.236Z,1.30
2019-03-13T21:17:56.424Z,1.33
2019-03-13T21:20:25.027Z,1.30
2019-03-13T21:22:53.538Z,1.40
2019-03-13T21:25:27.596Z,1.30
2019-03-13T21:27:56.026Z,1.40
2019-03-13T21:30:25.724Z,1.93
2019-03-13T21:32:54.341Z,1.37
2019-03-13T21:35:23.318Z,1.57
2019-03-13T21:37:51.926Z,1.17
2019-03-13T21:40:25.410Z,1.73
2019-03-13T21:42:55.015Z,1.80
2019-03-13T21:45:24.076Z,1.27
2019-03-13T21:47:52.652Z,1.40
2019-03-13T21:50:21.336Z,1.37
2019-03-13T21:52:50.135Z,1.20
2019-03-13T21:55:19.304Z,1.30
2019-03-13T21:57:51.511Z,1.17
2019-03-13T22:00:26.332Z,1.47
2019-03-13T22:02:55.206Z,1.37
2019-03-13T22:05:26.700Z,1.30
2019-03-13T22:07:54.002Z,1.42
2019-03-13T22:10:22.562Z,1.10
2019-03-13T22:12:51.330Z,1.70
2019-03-13T22:15:21.020Z,1.60
2019-03-13T22:17:49.601Z,1.60
2019-03-13T22:20:18.853Z,1.70
2019-03-13T22:22:47.520Z,1.70
2019-03-13T22:25:16.999Z,1.60
2019-03-13T22:27:45.557Z,1.60
2019-03-13T22:30:19.726Z,1.70
2019-03-13T22:32:48.161Z,1.80
2019-03-13T22:35:16.851Z,1.50
2019-03-13T22:37:45.430Z,1.73
2019-03-13T22:40:15.030Z,2.03
2019-03-13T22:42:43.501Z,2.10
2019-03-13T22:45:20.009Z,2.00
2019-03-13T22:47:48.490Z,2.00
2019-03-13T22:50:19.478Z,1.90
2019-03-13T22:52:47.901Z,1.77
2019-03-13T22:55:16.596Z,1.60
2019-03-13T22:57:45.546Z,1.90
2019-03-13T23:00:46.844Z,1.70
2019-03-13T23:03:16.375Z,2.07
2019-03-13T23:05:45.674Z,1.90
2019-03-13T23:08:14.167Z,1.60
2019-03-13T23:10:42.625Z,1.90
2019-03-13T23:13:11.117Z,1.93
2019-03-13T23:15:39.587Z,2.13
2019-03-13T23:18:08.088Z,2.10
2019-03-13T23:20:36.525Z,2.03
2019-03-13T23:23:05.031Z,2.10
2019-03-13T23:25:33.560Z,1.70
2019-03-13T23:28:02.000Z,2.57
2019-03-13T23:30:30.514Z,2.10
2019-03-13T23:32:58.932Z,2.10
2019-03-13T23:35:27.382Z,2.10
2019-03-13T23:37:55.883Z,1.97
2019-03-13T23:40:24.338Z,2.07
2019-03-13T23:42:52.809Z,2.20
2019-03-13T23:45:21.341Z,2.17
2019-03-13T23:47:49.851Z,2.10
2019-03-13T23:50:18.302Z,2.30
2019-03-13T23:52:46.727Z,2.07
2019-03-13T23:55:15.538Z,2.33
2019-03-13T23:57:43.966Z,2.27
